Time;durP1;ratioP1;P1;durP2;ratioP2;P2;SDS_P1;SDS_P2;PMS_P1;PMS_P2;Temp;Humidity;BMP_temperature;BMP_pressure;BME280_temperature;BME280_humidity;BME280_pressure;Samples;Min_cycle;Max_cycle;Signal;HPM_P1;HPM_P2
2022/01/27 00:02:13;;;;;;;8.70;6.97;;;;;;;;;;4945747;29;20214;-87
2022/01/27 00:04:52;;;;;;;20.53;12.00;;;;;;;;;;4997449;28;20228;-87
2022/01/27 00:07:21;;;;;;;22.70;17.23;;;;;;;;;;5016241;28;20251;-87
2022/01/27 00:10:05;;;;;;;15.57;10.90;;;;;;;;;;5015721;28;20201;-87
2022/01/27 00:12:34;;;;;;;14.37;9.97;;;;;;;;;;5016029;28;20216;-87
2022/01/27 00:15:09;;;;;;;14.13;10.07;;;;;;;;;;5015313;28;20209;-87
2022/01/27 00:17:42;;;;;;;18.00;11.03;;;;;;;;;;5015691;28;20278;-87
2022/01/27 00:20:11;;;;;;;17.93;11.93;;;;;;;;;;5014780;28;20209;-87
2022/01/27 00:22:42;;;;;;;16.57;11.70;;;;;;;;;;5014305;28;20208;-87
2022/01/27 00:25:11;;;;;;;14.13;9.07;;;;;;;;;;5014903;28;20231;-87
2022/01/27 00:27:40;;;;;;;16.17;11.07;;;;;;;;;;5014890;28;20208;-86
2022/01/27 00:30:10;;;;;;;16.70;12.17;;;;;;;;;;5015269;28;20217;-86
2022/01/27 00:32:38;;;;;;;17.60;11.37;;;;;;;;;;5014333;28;20233;-86
2022/01/27 00:35:07;;;;;;;22.07;12.70;;;;;;;;;;5015597;28;20206;-86
2022/01/27 00:37:36;;;;;;;18.53;10.90;;;;;;;;;;5013812;28;20210;-86
2022/01/27 00:40:08;;;;;;;13.40;10.47;;;;;;;;;;5014862;28;20241;-86
2022/01/27 00:42:37;;;;;;;34.13;16.50;;;;;;;;;;5015139;28;20228;-86
2022/01/27 00:45:06;;;;;;;19.43;12.13;;;;;;;;;;5014442;28;20220;-86
2022/01/27 00:47:34;;;;;;;8.60;6.80;;;;;;;;;;5014220;28;20215;-86
2022/01/27 00:50:04;;;;;;;12.80;7.03;;;;;;;;;;5015086;28;20212;-86
2022/01/27 00:52:37;;;;;;;16.87;9.90;;;;;;;;;;5015043;28;20210;-86
2022/01/27 00:55:09;;;;;;;24.00;17.87;;;;;;;;;;4995736;28;20202;-87
2022/01/27 00:57:51;;;;;;;10.00;8.93;;;;;;;;;;5000803;28;20216;-86
2022/01/27 01:00:22;;;;;;;20.97;12.97;;;;;;;;;;5015263;28;20193;-87
2022/01/27 01:02:55;;;;;;;16.80;9.27;;;;;;;;;;5014376;28;20228;-87
2022/01/27 01:05:41;;;;;;;34.07;11.40;;;;;;;;;;5013565;28;20220;-87
2022/01/27 01:08:43;;;;;;;10.40;8.13;;;;;;;;;;5013334;28;20205;-87
2022/01/27 01:16:48;;;;;;;8.73;7.63;;;;;;;;;;5012922;28;20212;-86
2022/01/27 01:19:26;;;;;;;14.27;9.07;;;;;;;;;;5014135;28;20217;-87
2022/01/27 01:29:19;;;;;;;12.27;8.43;;;;;;;;;;5014335;28;20252;-87
2022/01/27 01:30:33;;;;;;;23.77;13.23;;;;;;;;;;5002419;28;20212;-87
2022/01/27 01:33:05;;;;;;;20.60;8.93;;;;;;;;;;5014047;28;20220;-87
2022/01/27 01:35:47;;;;;;;18.67;12.60;;;;;;;;;;5013610;28;20241;-87
2022/01/27 01:38:17;;;;;;;23.97;11.07;;;;;;;;;;5013873;28;20223;-87
2022/01/27 01:40:47;;;;;;;15.50;9.13;;;;;;;;;;5014241;28;20220;-87
2022/01/27 01:43:17;;;;;;;17.77;10.43;;;;;;;;;;5013636;28;20235;-87
2022/01/27 01:45:46;;;;;;;20.57;13.27;;;;;;;;;;5013994;28;20224;-87
2022/01/27 01:48:16;;;;;;;12.37;9.23;;;;;;;;;;5013971;28;20208;-87
2022/01/27 01:50:47;;;;;;;17.00;10.10;;;;;;;;;;5018348;28;20204;-87
2022/01/27 01:53:15;;;;;;;18.40;9.23;;;;;;;;;;5017812;28;20238;-87
2022/01/27 01:55:44;;;;;;;15.83;8.97;;;;;;;;;;5018099;28;20199;-86
2022/01/27 01:58:12;;;;;;;24.63;11.73;;;;;;;;;;5018273;28;20200;-87
2022/01/27 02:00:42;;;;;;;25.60;11.27;;;;;;;;;;5018473;28;20214;-87
2022/01/27 02:03:10;;;;;;;16.60;10.77;;;;;;;;;;5017877;28;20224;-87
2022/01/27 02:05:47;;;;;;;19.93;10.60;;;;;;;;;;5018545;28;20296;-87
2022/01/27 02:19:27;;;;;;;22.17;11.53;;;;;;;;;;5017021;28;20283;-87
2022/01/27 02:21:58;;;;;;;15.07;9.57;;;;;;;;;;5017546;28;20204;-87
2022/01/27 02:24:28;;;;;;;15.90;10.30;;;;;;;;;;5017685;28;20264;-87
2022/01/27 02:26:57;;;;;;;22.63;11.53;;;;;;;;;;5016396;28;20241;-87
2022/01/27 02:29:26;;;;;;;9.00;7.20;;;;;;;;;;5016795;28;20201;-87
2022/01/27 02:31:54;;;;;;;15.37;10.03;;;;;;;;;;5016485;28;20213;-86
2022/01/27 02:34:23;;;;;;;11.60;7.77;;;;;;;;;;5017132;28;20241;-87
2022/01/27 02:36:51;;;;;;;11.37;5.93;;;;;;;;;;5016967;28;20208;-87
2022/01/27 02:39:22;;;;;;;20.87;9.90;;;;;;;;;;5016955;28;20228;-87
2022/01/27 02:41:53;;;;;;;16.63;12.30;;;;;;;;;;5017279;28;20205;-86
2022/01/27 02:44:25;;;;;;;18.40;8.87;;;;;;;;;;5016974;28;20279;-87
2022/01/27 02:46:56;;;;;;;14.47;8.80;;;;;;;;;;5015038;28;20299;-87
2022/01/27 02:49:24;;;;;;;18.20;10.20;;;;;;;;;;5016191;28;20256;-87
2022/01/27 02:51:53;;;;;;;14.80;10.20;;;;;;;;;;5016907;28;20331;-87
2022/01/27 02:54:22;;;;;;;16.63;11.10;;;;;;;;;;5016848;28;20214;-87
2022/01/27 02:56:51;;;;;;;16.17;10.37;;;;;;;;;;5013839;28;20232;-87
2022/01/27 02:59:20;;;;;;;11.97;8.37;;;;;;;;;;5016972;28;20213;-87
2022/01/27 03:01:50;;;;;;;7.90;5.27;;;;;;;;;;5015884;28;20197;-87
2022/01/27 03:04:20;;;;;;;26.50;10.60;;;;;;;;;;5017165;28;20228;-87
2022/01/27 03:06:49;;;;;;;12.70;9.43;;;;;;;;;;5017011;28;20228;-87
2022/01/27 03:09:18;;;;;;;17.00;11.00;;;;;;;;;;5016773;28;20206;-87
2022/01/27 03:11:48;;;;;;;22.13;10.57;;;;;;;;;;5017419;28;20240;-87
2022/01/27 03:14:18;;;;;;;12.23;9.30;;;;;;;;;;5016887;28;20203;-87
2022/01/27 03:16:46;;;;;;;19.77;8.33;;;;;;;;;;5017512;28;20213;-87
2022/01/27 03:19:15;;;;;;;20.33;9.57;;;;;;;;;;5016401;28;20263;-87
2022/01/27 03:21:44;;;;;;;9.10;5.80;;;;;;;;;;5016084;28;20256;-87
2022/01/27 03:24:12;;;;;;;19.53;10.33;;;;;;;;;;5016268;28;20259;-87
2022/01/27 03:26:42;;;;;;;13.43;8.57;;;;;;;;;;5016164;28;20370;-87
2022/01/27 03:29:11;;;;;;;9.30;7.23;;;;;;;;;;5016327;28;20257;-87
2022/01/27 03:31:40;;;;;;;15.90;7.03;;;;;;;;;;5015894;28;20260;-87
2022/01/27 03:34:08;;;;;;;26.07;7.03;;;;;;;;;;5015781;28;20208;-87
2022/01/27 03:36:36;;;;;;;9.53;4.33;;;;;;;;;;5015441;28;20267;-87
2022/01/27 03:39:05;;;;;;;16.17;8.50;;;;;;;;;;5015848;28;20220;-87
2022/01/27 03:41:34;;;;;;;15.57;8.00;;;;;;;;;;5015724;28;20213;-87
2022/01/27 03:44:03;;;;;;;15.47;8.33;;;;;;;;;;5015634;28;20220;-87
2022/01/27 03:46:33;;;;;;;7.50;4.70;;;;;;;;;;5015844;28;20245;-87
2022/01/27 03:49:01;;;;;;;7.63;6.33;;;;;;;;;;5016397;28;20221;-87
2022/01/27 03:51:30;;;;;;;12.67;7.00;;;;;;;;;;5016043;28;20209;-87
2022/01/27 03:53:59;;;;;;;10.53;6.83;;;;;;;;;;5016479;28;20207;-87
2022/01/27 03:56:27;;;;;;;15.27;8.07;;;;;;;;;;5015714;28;20202;-87
2022/01/27 03:58:55;;;;;;;8.43;5.87;;;;;;;;;;5015947;28;20206;-87
2022/01/27 04:01:24;;;;;;;11.57;6.80;;;;;;;;;;5016292;28;20231;-87
2022/01/27 04:03:57;;;;;;;20.97;10.33;;;;;;;;;;5015884;28;20285;-87
2022/01/27 04:06:33;;;;;;;6.07;4.30;;;;;;;;;;5016301;28;20226;-87
2022/01/27 04:09:02;;;;;;;21.70;8.63;;;;;;;;;;5016098;28;20236;-87
2022/01/27 04:11:30;;;;;;;9.60;6.07;;;;;;;;;;5015970;28;20214;-87
2022/01/27 04:13:58;;;;;;;18.20;6.57;;;;;;;;;;5015289;28;20214;-87
2022/01/27 04:16:27;;;;;;;7.63;5.80;;;;;;;;;;5015872;28;20208;-87
2022/01/27 04:18:57;;;;;;;10.57;6.93;;;;;;;;;;5014951;28;20236;-87
2022/01/27 04:21:25;;;;;;;16.10;5.63;;;;;;;;;;5015682;28;20268;-87
2022/01/27 04:23:54;;;;;;;16.97;7.73;;;;;;;;;;5015368;28;20220;-87
2022/01/27 04:26:28;;;;;;;14.53;7.97;;;;;;;;;;5015069;28;20282;-87
2022/01/27 04:28:57;;;;;;;15.07;6.47;;;;;;;;;;5015498;28;20288;-87
2022/01/27 04:31:27;;;;;;;16.10;9.47;;;;;;;;;;5015604;28;20274;-87
2022/01/27 04:33:57;;;;;;;13.13;6.63;;;;;;;;;;5016069;28;20194;-87
2022/01/27 04:36:29;;;;;;;9.03;5.27;;;;;;;;;;5015496;28;20206;-87
2022/01/27 04:39:07;;;;;;;14.93;8.50;;;;;;;;;;5015656;28;20299;-87
2022/01/27 04:41:41;;;;;;;15.27;7.97;;;;;;;;;;5014969;28;20203;-87
2022/01/27 04:44:18;;;;;;;25.20;6.97;;;;;;;;;;5015266;28;20241;-87
2022/01/27 04:46:52;;;;;;;17.97;8.40;;;;;;;;;;5014798;28;20229;-87
2022/01/27 04:49:22;;;;;;;16.93;7.80;;;;;;;;;;5015386;28;20208;-87
2022/01/27 04:51:51;;;;;;;13.80;6.90;;;;;;;;;;5014649;28;20258;-87
2022/01/27 04:54:24;;;;;;;22.23;8.90;;;;;;;;;;5015572;28;20659;-87
2022/01/27 04:56:53;;;;;;;14.10;7.60;;;;;;;;;;5015079;28;20216;-87
2022/01/27 04:59:26;;;;;;;18.63;8.07;;;;;;;;;;5014959;28;20245;-87
2022/01/27 05:01:59;;;;;;;23.23;10.10;;;;;;;;;;5014723;28;20256;-87
2022/01/27 05:04:34;;;;;;;22.20;11.03;;;;;;;;;;5014819;28;20259;-87
2022/01/27 05:07:02;;;;;;;14.53;8.30;;;;;;;;;;5014304;28;20229;-87
2022/01/27 05:09:30;;;;;;;15.97;9.00;;;;;;;;;;5014632;28;20201;-87
2022/01/27 05:12:09;;;;;;;18.27;9.27;;;;;;;;;;5014666;28;20218;-87
2022/01/27 05:14:38;;;;;;;18.07;8.50;;;;;;;;;;5014751;28;20203;-87
2022/01/27 05:17:06;;;;;;;14.17;8.30;;;;;;;;;;5014384;28;20256;-87
2022/01/27 05:19:36;;;;;;;23.50;9.90;;;;;;;;;;5014117;28;20194;-87
2022/01/27 05:22:04;;;;;;;11.27;7.30;;;;;;;;;;5014502;28;20201;-87
2022/01/27 05:24:33;;;;;;;22.87;14.83;;;;;;;;;;5013704;28;20213;-87
2022/01/27 05:27:01;;;;;;;13.63;8.43;;;;;;;;;;5013997;28;20258;-87
2022/01/27 05:29:30;;;;;;;13.80;7.57;;;;;;;;;;5014362;28;20242;-87
2022/01/27 05:31:58;;;;;;;29.57;11.90;;;;;;;;;;5014284;28;20260;-87
2022/01/27 05:34:27;;;;;;;15.37;7.70;;;;;;;;;;5014416;28;20215;-87
2022/01/27 05:36:56;;;;;;;24.80;10.07;;;;;;;;;;5014127;28;20252;-86
2022/01/27 05:39:26;;;;;;;17.93;8.47;;;;;;;;;;5014403;28;20194;-87
2022/01/27 05:41:54;;;;;;;22.03;8.47;;;;;;;;;;5014253;28;20244;-87
2022/01/27 05:44:23;;;;;;;30.97;7.03;;;;;;;;;;5013968;28;20262;-87
2022/01/27 05:46:51;;;;;;;15.30;7.87;;;;;;;;;;5014146;28;20263;-87
2022/01/27 05:49:20;;;;;;;19.07;7.60;;;;;;;;;;5013902;28;20198;-87
2022/01/27 05:51:48;;;;;;;19.93;9.60;;;;;;;;;;5014362;28;20230;-87
2022/01/27 05:54:18;;;;;;;24.97;8.10;;;;;;;;;;5013985;28;20254;-87
2022/01/27 05:56:46;;;;;;;18.50;8.60;;;;;;;;;;5014133;28;20238;-87
2022/01/27 05:59:15;;;;;;;21.23;10.20;;;;;;;;;;5014193;28;20237;-87
2022/01/27 06:01:43;;;;;;;17.07;8.27;;;;;;;;;;5013981;28;20222;-87
2022/01/27 06:04:12;;;;;;;16.13;7.10;;;;;;;;;;5014155;28;20230;-87
2022/01/27 06:06:40;;;;;;;16.97;7.27;;;;;;;;;;5014054;28;20295;-87
2022/01/27 06:09:08;;;;;;;14.23;7.53;;;;;;;;;;5014249;28;20226;-87
2022/01/27 06:11:38;;;;;;;18.30;10.00;;;;;;;;;;5013508;28;20206;-87
2022/01/27 06:14:07;;;;;;;22.80;9.23;;;;;;;;;;5013851;28;20213;-87
2022/01/27 06:16:35;;;;;;;18.57;5.90;;;;;;;;;;5014068;28;20213;-87
2022/01/27 06:19:06;;;;;;;6.33;4.13;;;;;;;;;;5013519;28;20240;-87
2022/01/27 06:21:35;;;;;;;20.27;7.13;;;;;;;;;;5013867;28;20194;-86
2022/01/27 06:24:05;;;;;;;16.73;8.20;;;;;;;;;;5013830;28;20214;-87
2022/01/27 06:26:33;;;;;;;11.07;6.63;;;;;;;;;;5013674;28;20256;-87
2022/01/27 06:29:03;;;;;;;18.60;10.60;;;;;;;;;;5014085;28;20221;-87
2022/01/27 06:31:32;;;;;;;9.10;5.20;;;;;;;;;;5014038;28;20198;-87
2022/01/27 06:34:00;;;;;;;14.97;6.20;;;;;;;;;;5013784;28;20214;-87
2022/01/27 06:36:29;;;;;;;21.57;9.83;;;;;;;;;;5017070;28;20202;-87
2022/01/27 06:38:57;;;;;;;12.60;6.47;;;;;;;;;;5017304;28;20202;-88
2022/01/27 06:41:26;;;;;;;21.80;9.80;;;;;;;;;;5018413;28;20215;-90
2022/01/27 06:43:57;;;;;;;11.73;5.93;;;;;;;;;;5020932;28;20213;-91
2022/01/27 06:46:27;;;;;;;11.77;6.47;;;;;;;;;;5028735;28;20197;-93
2022/01/27 06:48:56;;;;;;;9.73;5.37;;;;;;;;;;5025096;28;20279;-92
2022/01/27 06:51:26;;;;;;;17.07;7.23;;;;;;;;;;5029521;28;20266;-92
2022/01/27 06:53:55;;;;;;;10.27;4.73;;;;;;;;;;5030268;28;20213;-92
2022/01/27 06:56:24;;;;;;;22.63;6.73;;;;;;;;;;5025188;28;20247;-90
2022/01/27 06:58:53;;;;;;;21.30;10.00;;;;;;;;;;5018469;28;20213;-89
2022/01/27 07:01:21;;;;;;;14.13;6.37;;;;;;;;;;5017531;28;20217;-89
2022/01/27 07:03:51;;;;;;;19.27;9.70;;;;;;;;;;5017174;28;20225;-89
2022/01/27 07:06:20;;;;;;;19.93;5.60;;;;;;;;;;5016570;28;20292;-88
2022/01/27 07:08:48;;;;;;;26.57;11.23;;;;;;;;;;5016440;28;20230;-88
2022/01/27 07:11:17;;;;;;;20.60;11.27;;;;;;;;;;5016911;28;20206;-88
2022/01/27 07:13:46;;;;;;;16.13;5.77;;;;;;;;;;5017241;28;20210;-88
2022/01/27 07:16:14;;;;;;;11.10;6.10;;;;;;;;;;5016616;28;20276;-88
2022/01/27 07:18:43;;;;;;;16.33;8.53;;;;;;;;;;5016594;28;20286;-88
2022/01/27 07:21:13;;;;;;;16.20;7.77;;;;;;;;;;5016496;28;20259;-88
2022/01/27 07:23:41;;;;;;;23.80;5.27;;;;;;;;;;5016764;28;20319;-87
2022/01/27 07:26:10;;;;;;;29.43;6.97;;;;;;;;;;5016735;28;20213;-87
2022/01/27 07:28:38;;;;;;;17.93;6.20;;;;;;;;;;5016180;28;20236;-87
2022/01/27 07:31:06;;;;;;;13.27;6.37;;;;;;;;;;5016692;28;20206;-88
2022/01/27 07:33:35;;;;;;;20.03;5.70;;;;;;;;;;5016120;28;20255;-87
2022/01/27 07:36:03;;;;;;;15.63;7.17;;;;;;;;;;5016566;28;20218;-88
2022/01/27 07:38:33;;;;;;;12.33;5.57;;;;;;;;;;5018373;28;20201;-88
2022/01/27 07:41:02;;;;;;;13.80;4.00;;;;;;;;;;5015985;28;20288;-88
2022/01/27 07:43:30;;;;;;;9.50;5.50;;;;;;;;;;5016188;28;20220;-87
2022/01/27 07:45:59;;;;;;;27.57;9.63;;;;;;;;;;5015719;28;20288;-87
2022/01/27 07:48:28;;;;;;;10.13;5.17;;;;;;;;;;5015549;28;20233;-87
2022/01/27 07:50:57;;;;;;;6.30;4.07;;;;;;;;;;5016459;28;20209;-87
2022/01/27 07:53:25;;;;;;;17.40;9.17;;;;;;;;;;5016213;28;20241;-87
2022/01/27 07:55:56;;;;;;;11.70;5.47;;;;;;;;;;5015630;28;20206;-87
2022/01/27 07:58:24;;;;;;;8.43;4.63;;;;;;;;;;5016327;28;20202;-87
2022/01/27 08:00:53;;;;;;;21.73;6.77;;;;;;;;;;5015984;28;20205;-87
2022/01/27 08:03:23;;;;;;;22.87;10.23;;;;;;;;;;5015935;28;20234;-86
2022/01/27 08:05:52;;;;;;;5.07;3.57;;;;;;;;;;5015647;28;20217;-87
2022/01/27 08:08:21;;;;;;;11.70;3.73;;;;;;;;;;5015871;28;20237;-87
2022/01/27 08:10:49;;;;;;;4.23;3.17;;;;;;;;;;5015733;28;20229;-87
2022/01/27 08:13:19;;;;;;;16.03;7.47;;;;;;;;;;5015660;28;20210;-87
2022/01/27 08:15:48;;;;;;;3.90;3.53;;;;;;;;;;5015627;28;20217;-87
2022/01/27 08:18:36;;;;;;;6.73;2.87;;;;;;;;;;5015420;28;20306;-87
2022/01/27 08:21:05;;;;;;;12.47;6.63;;;;;;;;;;5014925;28;20205;-87
2022/01/27 08:23:34;;;;;;;13.63;7.00;;;;;;;;;;5015149;28;20217;-87
2022/01/27 08:26:06;;;;;;;14.50;5.80;;;;;;;;;;5015139;28;20233;-87
2022/01/27 08:28:41;;;;;;;17.37;7.00;;;;;;;;;;5015312;28;20295;-88
2022/01/27 08:31:11;;;;;;;17.93;5.77;;;;;;;;;;5015435;28;20214;-88
2022/01/27 08:33:41;;;;;;;15.60;5.30;;;;;;;;;;5015526;28;20252;-89
2022/01/27 08:36:09;;;;;;;14.23;6.00;;;;;;;;;;5015130;28;20256;-89
2022/01/27 08:38:43;;;;;;;11.67;4.93;;;;;;;;;;5015263;28;20213;-88
2022/01/27 08:41:12;;;;;;;12.30;5.27;;;;;;;;;;5015398;28;20210;-88
2022/01/27 08:43:42;;;;;;;16.43;4.77;;;;;;;;;;5015027;28;20214;-88
2022/01/27 08:46:11;;;;;;;12.70;5.63;;;;;;;;;;5015119;28;20213;-89
2022/01/27 08:48:42;;;;;;;17.50;5.53;;;;;;;;;;5015068;28;20227;-85
2022/01/27 08:51:11;;;;;;;9.40;3.07;;;;;;;;;;5015172;28;20204;-88
2022/01/27 08:53:55;;;;;;;10.07;3.67;;;;;;;;;;5015262;28;20209;-88
2022/01/27 08:56:24;;;;;;;18.47;6.27;;;;;;;;;;5015226;28;20256;-89
2022/01/27 08:58:55;;;;;;;7.40;4.63;;;;;;;;;;5013922;28;20213;-89
2022/01/27 09:01:26;;;;;;;7.03;3.50;;;;;;;;;;5015029;28;20209;-89
2022/01/27 09:03:55;;;;;;;9.17;4.83;;;;;;;;;;5014844;28;20262;-89
2022/01/27 09:06:24;;;;;;;12.43;5.23;;;;;;;;;;5014836;28;20212;-89
2022/01/27 09:08:54;;;;;;;11.53;7.00;;;;;;;;;;5014329;28;20229;-89
2022/01/27 09:11:23;;;;;;;14.37;7.37;;;;;;;;;;5014760;28;20229;-89
2022/01/27 09:14:15;;;;;;;11.23;5.27;;;;;;;;;;5014604;28;20211;-89
2022/01/27 09:16:44;;;;;;;5.87;3.13;;;;;;;;;;5014667;28;20293;-89
2022/01/27 09:19:17;;;;;;;18.37;8.53;;;;;;;;;;5014241;28;20306;-89
2022/01/27 09:21:46;;;;;;;13.60;6.33;;;;;;;;;;5014580;28;20233;-89
2022/01/27 09:24:39;;;;;;;6.40;3.43;;;;;;;;;;5014707;28;20202;-88
2022/01/27 09:27:08;;;;;;;20.37;7.33;;;;;;;;;;5014033;28;20211;-88
2022/01/27 09:29:38;;;;;;;7.73;3.97;;;;;;;;;;5014115;28;20283;-88
2022/01/27 09:32:07;;;;;;;6.90;3.33;;;;;;;;;;5014490;28;20222;-88
2022/01/27 09:34:36;;;;;;;11.47;5.77;;;;;;;;;;5014768;28;20221;-88
2022/01/27 09:37:05;;;;;;;13.77;5.00;;;;;;;;;;5014910;28;20221;-87
2022/01/27 09:39:35;;;;;;;6.40;3.83;;;;;;;;;;5015617;28;20254;-87
2022/01/27 09:42:05;;;;;;;15.30;3.37;;;;;;;;;;5017018;28;20211;-87
2022/01/27 09:44:36;;;;;;;12.80;4.07;;;;;;;;;;5015981;28;20210;-87
2022/01/27 09:47:12;;;;;;;15.67;5.47;;;;;;;;;;5015737;28;20308;-87
2022/01/27 09:49:48;;;;;;;14.00;5.93;;;;;;;;;;5014729;28;20241;-87
2022/01/27 09:52:17;;;;;;;12.13;4.93;;;;;;;;;;5014617;28;20219;-87
2022/01/27 09:54:46;;;;;;;12.70;4.63;;;;;;;;;;5014174;28;20289;-87
2022/01/27 09:57:16;;;;;;;3.00;2.47;;;;;;;;;;5014720;28;20206;-87
2022/01/27 09:59:45;;;;;;;14.63;6.53;;;;;;;;;;5014482;28;20220;-87
2022/01/27 10:02:17;;;;;;;9.40;4.83;;;;;;;;;;5013833;28;20297;-87
2022/01/27 10:04:47;;;;;;;19.83;6.60;;;;;;;;;;5014377;28;20225;-87
2022/01/27 10:07:18;;;;;;;19.27;5.43;;;;;;;;;;5013710;28;20210;-88
2022/01/27 10:10:00;;;;;;;20.83;5.03;;;;;;;;;;5014706;28;20236;-87
2022/01/27 10:12:30;;;;;;;12.10;4.97;;;;;;;;;;5018662;28;20213;-88
2022/01/27 10:15:00;;;;;;;11.50;6.03;;;;;;;;;;5018229;28;20214;-87
2022/01/27 10:17:33;;;;;;;20.13;7.50;;;;;;;;;;5017671;28;20205;-87
2022/01/27 10:20:02;;;;;;;8.23;3.20;;;;;;;;;;5017406;28;20242;-87
2022/01/27 10:22:30;;;;;;;14.60;4.80;;;;;;;;;;5017494;28;20208;-87
2022/01/27 10:25:04;;;;;;;11.93;5.47;;;;;;;;;;5017661;28;20233;-87
2022/01/27 10:27:45;;;;;;;8.07;3.90;;;;;;;;;;5017603;28;20233;-87
2022/01/27 10:30:38;;;;;;;15.33;4.97;;;;;;;;;;5017351;28;20313;-87
2022/01/27 10:33:08;;;;;;;5.67;2.77;;;;;;;;;;5017812;28;20210;-87
2022/01/27 10:35:37;;;;;;;14.83;5.10;;;;;;;;;;5017718;28;20206;-85
2022/01/27 10:38:07;;;;;;;15.10;5.53;;;;;;;;;;5017635;28;20230;-87
2022/01/27 10:40:36;;;;;;;12.37;4.47;;;;;;;;;;5017685;28;20197;-87
2022/01/27 10:43:13;;;;;;;9.80;3.73;;;;;;;;;;5017155;28;20215;-87
2022/01/27 10:45:57;;;;;;;16.33;6.33;;;;;;;;;;5017067;28;20206;-87
2022/01/27 10:48:30;;;;;;;4.13;2.73;;;;;;;;;;5017116;28;20219;-87
2022/01/27 10:51:09;;;;;;;11.90;3.77;;;;;;;;;;5017016;28;20281;-87
2022/01/27 10:53:50;;;;;;;13.20;6.03;;;;;;;;;;5016865;28;20205;-87
2022/01/27 10:56:19;;;;;;;8.03;3.40;;;;;;;;;;5017364;28;20195;-87
2022/01/27 10:58:50;;;;;;;12.33;4.23;;;;;;;;;;5016756;28;20205;-87
2022/01/27 11:01:35;;;;;;;14.63;3.90;;;;;;;;;;5017097;28;20227;-87
2022/01/27 11:04:06;;;;;;;8.47;4.27;;;;;;;;;;5017047;28;20226;-87
2022/01/27 11:06:35;;;;;;;17.10;6.10;;;;;;;;;;5016763;28;20198;-87
2022/01/27 11:09:08;;;;;;;10.83;4.23;;;;;;;;;;5017018;28;20204;-86
2022/01/27 11:11:38;;;;;;;7.53;3.40;;;;;;;;;;5016861;28;20223;-87
2022/01/27 11:14:07;;;;;;;12.20;4.93;;;;;;;;;;5016860;28;20215;-86
2022/01/27 11:16:38;;;;;;;12.50;3.47;;;;;;;;;;5016434;28;20210;-86
2022/01/27 11:19:35;;;;;;;4.20;1.90;;;;;;;;;;5016295;28;20233;-86
2022/01/27 11:22:09;;;;;;;16.23;5.43;;;;;;;;;;5015862;28;20210;-87
2022/01/27 11:25:06;;;;;;;16.70;5.63;;;;;;;;;;5016399;28;20210;-87
2022/01/27 11:27:33;;;;;;;15.93;4.50;;;;;;;;;;5016158;28;20236;-87
2022/01/27 11:30:05;;;;;;;3.77;2.73;;;;;;;;;;5016268;28;20257;-87
2022/01/27 11:32:34;;;;;;;11.50;3.67;;;;;;;;;;5016567;28;20208;-87
2022/01/27 11:35:16;;;;;;;5.77;3.43;;;;;;;;;;5016461;28;20216;-87
2022/01/27 11:37:49;;;;;;;6.27;3.80;;;;;;;;;;5015905;28;20214;-86
2022/01/27 11:40:20;;;;;;;5.63;2.90;;;;;;;;;;5016454;28;20207;-87
2022/01/27 11:43:19;;;;;;;12.27;5.70;;;;;;;;;;5016102;28;20202;-86
2022/01/27 11:45:48;;;;;;;11.73;3.63;;;;;;;;;;5012020;28;20278;-87
2022/01/27 11:48:21;;;;;;;6.00;2.67;;;;;;;;;;5015858;28;20266;-87
2022/01/27 11:50:54;;;;;;;17.50;5.67;;;;;;;;;;5016046;28;20231;-87
2022/01/27 11:53:29;;;;;;;10.57;3.50;;;;;;;;;;5015692;28;20249;-87
2022/01/27 11:55:58;;;;;;;9.97;4.33;;;;;;;;;;5015853;28;20265;-86
2022/01/27 11:58:28;;;;;;;12.07;4.30;;;;;;;;;;5016132;28;20203;-86
2022/01/27 12:01:18;;;;;;;6.03;3.27;;;;;;;;;;5016061;28;20204;-86
2022/01/27 12:04:01;;;;;;;9.97;4.23;;;;;;;;;;5016102;28;20228;-86
2022/01/27 12:06:32;;;;;;;17.13;5.40;;;;;;;;;;5000298;28;20428;-86
2022/01/27 12:09:19;;;;;;;5.77;2.57;;;;;;;;;;5015837;28;20257;-86
2022/01/27 12:11:49;;;;;;;7.37;2.90;;;;;;;;;;5015869;28;20239;-86
2022/01/27 12:14:22;;;;;;;7.07;2.87;;;;;;;;;;5015962;28;20235;-86
2022/01/27 12:17:05;;;;;;;14.97;3.90;;;;;;;;;;5015777;28;20216;-86
2022/01/27 12:19:47;;;;;;;7.40;3.00;;;;;;;;;;5014793;28;20239;-86
2022/01/27 12:22:17;;;;;;;14.37;4.77;;;;;;;;;;5015960;28;20206;-85
2022/01/27 12:24:53;;;;;;;11.97;4.87;;;;;;;;;;5015475;28;20192;-87
2022/01/27 12:27:22;;;;;;;8.30;3.40;;;;;;;;;;5015688;28;20203;-87
2022/01/27 12:30:11;;;;;;;15.20;3.50;;;;;;;;;;5015347;28;20204;-87
2022/01/27 12:32:40;;;;;;;7.37;3.57;;;;;;;;;;5015262;28;20199;-86
2022/01/27 12:35:09;;;;;;;6.67;3.23;;;;;;;;;;5015545;28;20290;-87
2022/01/27 12:37:40;;;;;;;15.00;4.47;;;;;;;;;;5015049;28;20220;-86
2022/01/27 12:40:16;;;;;;;5.07;2.10;;;;;;;;;;5015289;28;20211;-86
2022/01/27 12:42:49;;;;;;;4.77;2.77;;;;;;;;;;5015166;28;20278;-87
2022/01/27 12:45:19;;;;;;;10.57;2.63;;;;;;;;;;5015421;28;20208;-87
2022/01/27 12:47:48;;;;;;;7.27;3.10;;;;;;;;;;5014848;28;20239;-87
2022/01/27 12:50:19;;;;;;;9.87;3.37;;;;;;;;;;5014944;28;20284;-87
2022/01/27 12:52:52;;;;;;;14.77;3.93;;;;;;;;;;5014971;28;20295;-87
2022/01/27 12:55:30;;;;;;;8.53;2.70;;;;;;;;;;5015188;28;20298;-87
2022/01/27 12:57:59;;;;;;;10.43;4.03;;;;;;;;;;5015189;28;20245;-87
2022/01/27 13:00:28;;;;;;;17.47;2.60;;;;;;;;;;5015088;28;20204;-87
2022/01/27 13:02:59;;;;;;;10.83;7.07;;;;;;;;;;5015110;28;20306;-87
2022/01/27 13:05:35;;;;;;;2.77;2.30;;;;;;;;;;5015104;28;20184;-87
2022/01/27 13:08:05;;;;;;;5.90;2.50;;;;;;;;;;5014668;28;20289;-87
2022/01/27 13:10:34;;;;;;;12.03;4.67;;;;;;;;;;5014708;28;20212;-87
2022/01/27 13:13:11;;;;;;;12.80;4.87;;;;;;;;;;5015147;28;20203;-87
2022/01/27 13:15:40;;;;;;;3.77;2.50;;;;;;;;;;4997554;28;20313;-87
2022/01/27 13:18:14;;;;;;;13.17;4.63;;;;;;;;;;5014946;28;20230;-87
2022/01/27 13:20:46;;;;;;;12.60;3.87;;;;;;;;;;5014299;28;20254;-87
2022/01/27 13:23:22;;;;;;;8.10;2.73;;;;;;;;;;5014771;28;20211;-87
2022/01/27 13:25:53;;;;;;;10.97;3.60;;;;;;;;;;5014525;28;20257;-87
2022/01/27 13:28:25;;;;;;;10.37;3.03;;;;;;;;;;5014810;28;20215;-87
2022/01/27 13:30:54;;;;;;;8.80;2.57;;;;;;;;;;5014501;28;20192;-87
2022/01/27 13:33:24;;;;;;;5.07;2.30;;;;;;;;;;5014482;28;20303;-87
2022/01/27 13:35:53;;;;;;;6.90;2.10;;;;;;;;;;5015224;28;20219;-86
2022/01/27 13:38:26;;;;;;;10.47;4.30;;;;;;;;;;5014650;28;20311;-86
2022/01/27 13:43:48;;;;;;;6.97;2.43;;;;;;;;;;5014637;28;20259;-86
2022/01/27 13:46:36;;;;;;;9.30;3.53;;;;;;;;;;5013961;28;20207;-86
2022/01/27 13:49:07;;;;;;;4.80;1.30;;;;;;;;;;5014270;28;20253;-86
2022/01/27 13:51:46;;;;;;;3.43;1.20;;;;;;;;;;5014216;28;20228;-86
2022/01/27 13:54:16;;;;;;;7.00;1.90;;;;;;;;;;5014426;28;20192;-86
2022/01/27 13:56:45;;;;;;;7.13;3.33;;;;;;;;;;5014294;28;20212;-86
2022/01/27 13:59:16;;;;;;;6.90;1.90;;;;;;;;;;5014070;28;20238;-86
2022/01/27 14:01:46;;;;;;;7.27;2.47;;;;;;;;;;5014203;28;20204;-87
2022/01/27 14:04:15;;;;;;;9.37;2.50;;;;;;;;;;5014231;28;20227;-86
2022/01/27 14:06:52;;;;;;;10.83;3.43;;;;;;;;;;5014156;28;20223;-86
2022/01/27 14:09:26;;;;;;;6.17;2.33;;;;;;;;;;5014300;28;20257;-86
2022/01/27 14:11:56;;;;;;;6.20;2.33;;;;;;;;;;5014196;28;20302;-86
2022/01/27 14:14:44;;;;;;;12.23;3.80;;;;;;;;;;5014372;28;20199;-86
2022/01/27 14:17:19;;;;;;;9.97;3.47;;;;;;;;;;5014318;28;20207;-86
2022/01/27 14:19:48;;;;;;;4.13;2.00;;;;;;;;;;5014102;28;20247;-87
2022/01/27 14:22:21;;;;;;;7.80;3.33;;;;;;;;;;5014143;28;20191;-86
2022/01/27 14:25:04;;;;;;;7.87;3.50;;;;;;;;;;5014707;28;20203;-86
2022/01/27 14:27:37;;;;;;;13.07;2.73;;;;;;;;;;5014533;28;20195;-86
2022/01/27 14:30:07;;;;;;;9.97;5.47;;;;;;;;;;5014506;28;20219;-87
2022/01/27 14:32:36;;;;;;;9.53;3.57;;;;;;;;;;5014075;28;20227;-87
2022/01/27 14:35:07;;;;;;;8.50;3.33;;;;;;;;;;5014054;28;20280;-87
2022/01/27 14:37:36;;;;;;;2.87;1.67;;;;;;;;;;5014357;28;20286;-88
2022/01/27 14:40:11;;;;;;;10.30;3.73;;;;;;;;;;5014817;28;20207;-86
2022/01/27 14:42:40;;;;;;;15.17;3.57;;;;;;;;;;5013858;28;20254;-87
2022/01/27 14:45:09;;;;;;;3.60;2.00;;;;;;;;;;5014037;28;20238;-87
2022/01/27 14:47:43;;;;;;;3.50;1.80;;;;;;;;;;5014077;28;20207;-87
2022/01/27 14:50:12;;;;;;;10.50;3.30;;;;;;;;;;5014157;28;20242;-87
2022/01/27 14:52:42;;;;;;;2.30;1.87;;;;;;;;;;5013770;28;20292;-87
2022/01/27 14:55:13;;;;;;;6.00;2.03;;;;;;;;;;5014303;28;20288;-87
2022/01/27 14:57:42;;;;;;;7.67;2.80;;;;;;;;;;5015821;28;20206;-88
2022/01/27 15:00:11;;;;;;;4.03;1.50;;;;;;;;;;5017036;28;20234;-86
2022/01/27 15:02:40;;;;;;;11.57;3.27;;;;;;;;;;5017396;28;20217;-86
2022/01/27 15:05:10;;;;;;;6.40;1.53;;;;;;;;;;5017274;28;20220;-86
2022/01/27 15:07:39;;;;;;;14.83;2.17;;;;;;;;;;5017318;28;20289;-86
2022/01/27 15:10:09;;;;;;;9.20;3.40;;;;;;;;;;5016937;28;20221;-87
2022/01/27 15:12:39;;;;;;;12.83;3.57;;;;;;;;;;5016951;28;20221;-87
2022/01/27 15:20:40;;;;;;;5.27;2.67;;;;;;;;;;5016567;28;20269;-87
2022/01/27 15:23:10;;;;;;;4.47;2.67;;;;;;;;;;5016134;28;20203;-86
2022/01/27 15:25:39;;;;;;;8.23;2.80;;;;;;;;;;5016110;28;20204;-86
2022/01/27 15:28:09;;;;;;;6.83;1.90;;;;;;;;;;5016254;28;20208;-86